Flight Track Log - Related Links

Times and Time Zones

All times are in EDT time to prevent confusion due to time zone crossing. See the ANA9397 flight status page for this flight to view local times or setup timezone preferences in your user account.

Time Position Orientation Groundspeed Altitude Reporting Facility
EDT Latitude Longitude Course Direction KTS MPH feet Rate Location/Type
Thu 04:58:55 PM 61.1790 -150.0030 343° North 110 127  Level FlightAware
Thu 04:59:15 PM 61.1930 -150.0100 346° North 157 181 800 2,571 Climbing FlightAware
Thu 04:59:37 PM 61.2080 -150.0210 341° North 167 192 1,800 2,800 Climbing FlightAware
Thu 04:59:45 PM 61.2130 -150.0280 326° Northwest 167 192 2,200 2,700 Climbing FlightAware
Thu 04:59:57 PM 61.2210 -150.0400 324° Northwest 168 193 2,700 2,667 Climbing FlightAware
Thu 05:00:03 PM 61.2240 -150.0470 312° West 171 197 3,000 2,118 Climbing FlightAware
Thu 05:00:14 PM 61.2270 -150.0620 293° West 170 196 3,300 2,000 Climbing FlightAware
Thu 05:00:21 PM 61.2280 -150.0750 279° West 174 200 3,600 1,111 Climbing FlightAware
Thu 05:00:41 PM 61.2300 -150.1110 277° West 212 244 3,800 1,125 Climbing FlightAware
Thu 05:00:53 PM 61.2310 -150.1370 275° West 227 261 4,200 2,364 Climbing FlightAware
Thu 05:01:14 PM 61.2340 -150.1820 278° West 234 269 5,100 2,919 Climbing FlightAware
Thu 05:01:30 PM 61.2350 -150.2170 273° West 230 265 6,000 3,081 Climbing FlightAware
Thu 05:01:51 PM 61.2360 -150.2650 273° West 232 267 7,000 3,091 Climbing FlightAware
Thu 05:02:03 PM 61.2370 -150.2920 274° West 232 267 7,700 2,500 Climbing FlightAware
Thu 05:02:27 PM 61.2380 -150.3460 272° West 248 285 8,500 1,857 Climbing FlightAware
Thu 05:02:45 PM 61.2400 -150.3910 275° West 271 312 9,000 2,100 Climbing FlightAware
Thu 05:03:07 PM 61.2420 -150.4490 274° West 279 321 9,900 2,571 Climbing FlightAware
Thu 05:03:41 PM 61.2450 -150.5430 274° West 291 335 11,400 2,735 Climbing FlightAware
Thu 05:04:15 PM 61.2480 -150.6350 274° West 298 343 13,000 3,083 Climbing FlightAware
Thu 05:04:53 PM 61.2510 -150.7500 273° West 303 349 15,100 3,081 Climbing FlightAware
Thu 05:05:29 PM 61.2540 -150.8540 273° West 310 357 16,800 2,559 Climbing FlightAware
Thu 05:06:01 PM 61.2570 -150.9510 274° West 324 373 18,000 2,486 Climbing FlightAware
Thu 05:06:39 PM 61.2610 -151.0720 274° West 333 383 19,700 2,657 Climbing FlightAware
Thu 05:07:11 PM 61.2630 -151.1750 272° West 338 389 21,100 2,471 Climbing FlightAware
Thu 05:07:47 PM 61.2670 -151.2910 274° West 345 397 22,500 2,301 Climbing FlightAware
Thu 05:08:24 PM 61.2700 -151.4140 273° West 351 404 23,900 2,261 Climbing FlightAware
Thu 05:08:56 PM 61.2720 -151.5220 272° West 356 410 25,100 2,118 Climbing FlightAware
Thu 05:09:32 PM 61.2750 -151.6490 273° West 363 418 26,300 1,917 Climbing FlightAware
Thu 05:10:08 PM 61.2780 -151.7710 273° West 370 426 27,400 1,808 Climbing FlightAware
Thu 05:10:45 PM 61.2810 -151.9040 273° West 376 433 28,500 1,791 Climbing FlightAware
Thu 05:11:15 PM 61.2840 -152.0170 273° West 381 438 29,400 1,765 Climbing FlightAware
Thu 05:11:36 PM 61.2840 -152.0910 270° West 382 440 30,000 1,840 Climbing FlightAware
Thu 05:12:30 PM 61.2850 -152.2900 271° West 383 441 31,700 1,744 Climbing FlightAware
Thu 05:13:02 PM 61.2850 -152.4090 270° West 386 444 32,500 1,235 Climbing FlightAware
Thu 05:13:38 PM 61.2850 -152.5430 270° West 393 452 33,100 1,000 Climbing FlightAware
Thu 05:14:14 PM 61.2860 -152.6790 271° West 402 463 33,700 1,043 Climbing FlightAware
Thu 05:14:47 PM 61.2860 -152.8070 270° West 408 470 34,300 1,048 Climbing FlightAware
Thu 05:15:17 PM 61.2860 -152.9280 270° West 413 475 34,800 1,114 Climbing FlightAware
Thu 05:15:57 PM 61.2860 -153.0820 270° West 413 475 35,600 1,135 Climbing FlightAware
Thu 05:16:31 PM 61.2850 -153.2200 269° West 415 478 36,200 930 Climbing FlightAware
Thu 05:17:08 PM 61.2850 -153.3660 270° West 417 480 36,700 658 Climbing FlightAware
Thu 05:17:44 PM 61.2840 -153.5130 269° West 424 488 37,000 676 Climbing FlightAware
Thu 05:18:19 PM 61.2840 -153.6540 270° West 427 491 37,500 1,075 Climbing FlightAware
Thu 05:18:51 PM 61.2830 -153.7860 269° West 422 486 38,200 1,147 Climbing FlightAware
Thu 05:19:27 PM 61.2820 -153.9290 269° West 417 480 38,800 904 Climbing FlightAware
Thu 05:20:04 PM 61.2810 -154.0730 269° West 414 476 39,300 696 Climbing FlightAware
Thu 05:20:36 PM 61.2800 -154.2020 269° West 414 476 39,600 474 Climbing FlightAware
Thu 05:21:20 PM 61.2780 -154.3780 269° West 415 478 39,900 316 Climbing FlightAware
Thu 05:21:52 PM 61.2760 -154.5040 268° West 416 479 40,000 90 Climbing FlightAware
Thu 05:22:27 PM 61.2740 -154.6450 268° West 418 481 40,000  Level FlightAware
Thu 05:23:03 PM 61.2720 -154.7910 268° West 418 481 40,000  Level FlightAware
Thu 05:23:41 PM 61.2700 -154.9340 268° West 416 479 40,000  Level FlightAware
Thu 05:24:26 PM 61.2680 -155.1060 269° West 416 479 40,000  Level FlightAware
Thu 05:25:02 PM 61.2660 -155.2280 268° West 416 479 40,000  Level FlightAware
Thu 05:25:38 PM 61.2630 -155.3500 267° West 416 479 40,000  Level FlightAware
Thu 05:26:15 PM 61.2610 -155.4760 268° West 416 479 40,000  Level FlightAware
Thu 05:26:51 PM 61.2590 -155.5990 268° West 416 479 40,000  Level FlightAware
Thu 05:27:27 PM 61.2570 -155.7210 268° West 416 479 40,000  Level FlightAware
Thu 05:28:03 PM 61.2550 -155.8440 268° West 416 479 40,000  Level FlightAware
Thu 05:28:39 PM 61.2530 -155.9660 268° West 416 479 40,000  Level FlightAware
Thu 05:29:15 PM 61.2510 -156.0880 268° West 416 479 40,000  Level FlightAware
Thu 05:29:52 PM 61.2490 -156.2140 268° West 416 479 40,000  Level FlightAware
Thu 05:30:26 PM 61.2470 -156.3300 268° West 416 479 40,000  Level FlightAware
Thu 05:31:02 PM 61.2450 -156.4520 268° West 416 479 40,000  Level FlightAware
Thu 05:31:38 PM 61.2430 -156.5740 268° West 416 479 40,000  Level FlightAware
Thu 05:32:14 PM 61.2410 -156.6970 268° West 416 479 40,000  Level FlightAware
Thu 05:32:51 PM 61.2390 -156.8220 268° West 416 479 40,000  Level FlightAware
Thu 05:33:27 PM 61.2360 -156.9450 267° West 416 479 40,000  Level FlightAware
Thu 05:34:18 PM 61.2500 -157.4667 267° West 410 472 40,000  Level Anchorage Center
Thu 05:35:18 PM 61.2500 -157.7000 270° West 410 472 40,000  Level Anchorage Center
Thu 05:36:19 PM 61.2333 -157.9500 262° West 410 472 40,000  Level Anchorage Center
Thu 05:37:19 PM 61.2333 -158.1333 270° West 410 472 40,000  Level Anchorage Center
Thu 05:38:19 PM 61.2333 -158.4333 270° West 410 472 40,000  Level Anchorage Center
Thu 05:39:20 PM 61.2333 -158.6667 270° West 420 483 40,000  Level Anchorage Center
Thu 05:40:20 PM 61.2333 -158.9167 270° West 410 472 40,000  Level Anchorage Center
Thu 05:41:20 PM 61.2333 -159.1500 270° West 420 483 40,000  Level Anchorage Center
Thu 05:42:21 PM 61.2333 -159.4000 270° West 420 483 40,000  Level Anchorage Center
Thu 05:43:21 PM 61.2167 -159.6333 262° West 420 483 40,000  Level Anchorage Center
Thu 05:44:21 PM 61.2167 -159.8833 270° West 420 483 40,000  Level Anchorage Center
Thu 05:45:21 PM 61.2167 -160.1333 270° West 420 483 40,000  Level Anchorage Center
Thu 05:46:21 PM 61.2000 -160.3667 262° West 410 472 40,000  Level Anchorage Center
Thu 05:47:22 PM 61.2000 -160.6167 270° West 410 472 40,000  Level Anchorage Center
Thu 05:48:22 PM 61.1833 -160.8500 262° West 410 472 40,000  Level Anchorage Center
Thu 05:49:23 PM 61.1833 -161.0833 270° West 410 472 40,000  Level Anchorage Center
Thu 05:50:23 PM 61.1667 -161.3167 262° West 400 460 40,000  Level Anchorage Center
Thu 05:51:23 PM 61.1667 -161.5500 270° West 410 472 40,000  Level Anchorage Center
Thu 05:52:24 PM 61.1500 -161.8000 262° West 410 472 40,000  Level Anchorage Center
Thu 05:53:24 PM 61.1500 -162.0333 270° West 400 460 40,000  Level Anchorage Center
Thu 05:54:24 PM 61.1333 -162.2667 262° West 410 472 40,000  Level Anchorage Center
Thu 05:55:25 PM 61.1333 -162.5167 270° West 420 483 40,000  Level Anchorage Center
Thu 05:56:25 PM 61.1167 -162.7500 262° West 410 472 40,000  Level Anchorage Center
Thu 05:57:25 PM 61.1000 -162.9833 262° West 420 483 40,000  Level Anchorage Center
Thu 05:58:26 PM 61.0833 -163.2167 262° West 400 460 40,000  Level Anchorage Center
Thu 05:59:26 PM 61.0500 -163.4500 254° West 430 495 40,000  Level Anchorage Center
Thu 06:00:26 PM 61.0167 -163.6833 254° West 420 483 40,000  Level Anchorage Center
Thu 06:01:27 PM 60.9833 -163.9167 254° West 420 483 40,000  Level Anchorage Center
Thu 06:02:27 PM 60.9500 -164.1500 254° West 420 483 40,000  Level Anchorage Center
Thu 06:03:27 PM 60.9000 -164.3833 246° West 420 483 40,000  Level Anchorage Center
Thu 06:04:28 PM 60.8667 -164.6167 254° West 420 483 40,000  Level Anchorage Center
Thu 06:05:30 PM 60.8333 -164.8500 254° West 420 483 40,000  Level Anchorage Center
Thu 06:06:28 PM 60.8000 -165.0833 254° West 410 472 40,000  Level Anchorage Center
Thu 06:07:29 PM 60.7667 -165.3167 254° West 420 483 40,000  Level Anchorage Center
Thu 06:08:11 PM 60.7333 -165.5000 250° West 420 483 40,000  Level Anchorage Center
Thu 06:09:11 PM 60.7000 -165.7167 253° West 420 483 40,000  Level Anchorage Center
Thu 06:10:11 PM 60.6667 -165.9500 254° West 410 472 40,000  Level Anchorage Center
Thu 06:11:11 PM 60.6167 -166.1667 245° Southwest 420 483 40,000  Level Anchorage Center
Thu 06:12:11 PM 60.5833 -166.4000 254° West 420 483 40,000  Level Anchorage Center
Thu 06:13:12 PM 60.5500 -166.6333 254° West 420 483 40,000  Level Anchorage Center
Thu 06:14:12 PM 60.5167 -166.8167 250° West 420 483 40,000  Level Anchorage Center
Thu 06:15:12 PM 60.4667 -167.0333 245° Southwest 420 483 40,000  Level Anchorage Center
Thu 06:16:12 PM 60.4333 -167.2667 254° West 430 495 40,000  Level Anchorage Center
Thu 06:17:12 PM 60.4000 -167.5000 254° West 420 483 40,000  Level Anchorage Center
Thu 06:18:12 PM 60.3500 -167.7167 245° Southwest 420 483 40,000  Level Anchorage Center
Thu 06:19:12 PM 60.3167 -167.9500 254° West 430 495 40,000  Level Anchorage Center
Thu 06:20:12 PM 60.2833 -168.1667 253° West 420 483 40,000  Level Anchorage Center
Thu 06:21:12 PM 60.2333 -168.3833 245° Southwest 410 472 40,000  Level Anchorage Center
Thu 06:22:12 PM 60.2000 -168.6000 253° West 410 472 40,000  Level Anchorage Center
Thu 06:23:12 PM 60.1500 -168.8167 245° Southwest 410 472 40,000  Level Anchorage Center
Thu 06:24:13 PM 60.1167 -169.0500 254° West 420 483 40,000  Level Anchorage Center
Thu 06:25:13 PM 60.0667 -169.2667 245° Southwest 420 483 40,000  Level Anchorage Center
Thu 06:26:12 PM 60.0333 -169.4667 252° West 410 472 40,000  Level Anchorage Center
Thu 06:27:13 PM 59.9833 -169.7000 247° West 420 483 40,000  Level Anchorage Center
Thu 06:28:13 PM 59.9333 -169.9167 245° Southwest 410 472 40,000  Level Anchorage Center
Thu 06:29:13 PM 59.9000 -170.1333 253° West 410 472 40,000  Level Anchorage Center
Thu 06:30:13 PM 59.8500 -170.3500 245° Southwest 420 483 40,000  Level Anchorage Center
Thu 06:31:13 PM 59.8167 -170.5667 253° West 410 472 40,000  Level Anchorage Center
Thu 06:32:13 PM 59.7667 -170.7833 245° Southwest 420 483 40,000  Level Anchorage Center
Thu 06:33:13 PM 59.7167 -171.0000 245° Southwest 410 472 40,000  Level Anchorage Center
Thu 06:34:14 PM 59.6833 -171.2167 253° West 420 483 40,000  Level Anchorage Center
Thu 06:35:13 PM 59.6333 -171.4167 244° Southwest 410 472 40,000  Level Anchorage Center
Thu 06:36:14 PM 59.5833 -171.6333 246° West 410 472 40,000  Level Anchorage Center
Thu 06:37:13 PM 59.5500 -171.8500 253° West 420 483 40,000  Level Anchorage Center
Thu 06:38:13 PM 59.5000 -172.0500 244° Southwest 410 472 40,000  Level Anchorage Center
Thu 06:39:13 PM 59.4500 -172.2667 246° West 420 483 40,000  Level Anchorage Center
Thu 06:40:14 PM 59.4167 -172.4833 253° West 420 483 40,000  Level Anchorage Center
Thu 06:41:13 PM 59.3667 -172.7000 246° West 420 483 40,000  Level Anchorage Center
Thu 06:42:14 PM 59.3167 -172.9167 246° West 410 472 40,000  Level Anchorage Center
Thu 06:43:14 PM 59.2833 -173.1333 253° West 430 495 40,000  Level Anchorage Center
Thu 06:44:14 PM 59.2333 -173.3333 244° Southwest 420 483 40,000  Level Anchorage Center
Thu 06:45:14 PM 59.1833 -173.5500 246° West 420 483 40,000  Level Anchorage Center
Thu 06:46:14 PM 59.1333 -173.7667 246° West 420 483 40,000  Level Anchorage Center
Thu 06:47:14 PM 59.1000 -173.9667 252° West 420 483 40,000  Level Anchorage Center
Thu 06:48:14 PM 59.0500 -174.1833 246° West 420 483 40,000  Level Anchorage Center
Thu 06:49:14 PM 59.0000 -174.4000 246° West 420 483 40,000  Level Anchorage Center
Thu 06:50:14 PM 58.9667 -174.6000 252° West 410 472 40,000  Level Anchorage Center
Thu 06:51:14 PM 58.9167 -174.8000 244° Southwest 410 472 40,000  Level Anchorage Center
Thu 06:52:14 PM 58.8667 -175.0167 246° West 420 483 40,000  Level Anchorage Center
Thu 06:53:15 PM 58.8167 -175.2333 246° West 420 483 40,000  Level Anchorage Center
Thu 06:54:14 PM 58.7667 -175.4333 244° Southwest 420 483 40,000  Level Anchorage Center
Thu 06:55:14 PM 58.7167 -175.6333 244° Southwest 420 483 40,000  Level Anchorage Center
Thu 06:56:15 PM 58.6667 -175.8500 246° West 420 483 40,000  Level Anchorage Center
Thu 06:57:15 PM 58.6333 -176.0500 252° West 410 472 40,000  Level Anchorage Center
Thu 06:58:15 PM 58.5833 -176.2500 244° Southwest 420 483 40,000  Level Anchorage Center
Thu 06:59:15 PM 58.5333 -176.4667 246° West 420 483 40,000  Level Anchorage Center
Thu 07:00:15 PM 58.4833 -176.6667 245° Southwest 430 495 40,000  Level Anchorage Center
Thu 07:01:15 PM 58.4333 -176.8833 246° West 420 483 40,000  Level Anchorage Center
Thu 07:02:15 PM 58.3833 -177.0833 245° Southwest 420 483 40,000  Level Anchorage Center
Thu 07:03:15 PM 58.3333 -177.2833 245° Southwest 420 483 40,000  Level Anchorage Center
Thu 07:06:00 PM 58.2491 -177.6184 245° Southwest  Level FlightAware
Thu 07:13:00 PM 57.9034 -178.9425 244° Southwest  Level FlightAware
Thu 07:14:00 PM 57.8529 -179.1296 243° Southwest  Level FlightAware
Thu 07:15:00 PM 57.8021 -179.3161 243° Southwest  Level FlightAware
Thu 07:16:00 PM 57.7510 -179.5022 243° Southwest  Level FlightAware
Thu 07:17:00 PM 57.6997 -179.6877 243° Southwest  Level FlightAware
Thu 07:18:00 PM 57.6481 -179.8726 243° Southwest  Level FlightAware
Thu 07:19:00 PM 57.5963 179.9429 242° Southwest  Level FlightAware
Thu 07:20:00 PM 57.5442 179.7590 242° Southwest  Level FlightAware
Thu 07:21:00 PM 57.4918 179.5756 242° Southwest  Level FlightAware
Thu 07:22:00 PM 57.4391 179.3928 242° Southwest  Level FlightAware
Thu 07:23:00 PM 57.3862 179.2104 242° Southwest  Level FlightAware
Thu 07:24:00 PM 57.3330 179.0286 242° Southwest  Level FlightAware
Thu 07:25:00 PM 57.2796 178.8474 241° Southwest  Level FlightAware
Thu 07:26:00 PM 57.2258 178.6666 241° Southwest  Level FlightAware
Thu 07:27:00 PM 57.1719 178.4864 241° Southwest  Level FlightAware
Thu 07:28:00 PM 57.1177 178.3067 241° Southwest  Level FlightAware
Thu 07:29:00 PM 57.0632 178.1275 241° Southwest  Level FlightAware
Thu 07:30:00 PM 57.0085 177.9489 241° Southwest  Level FlightAware
Thu 07:31:00 PM 56.9535 177.7708 241° Southwest  Level FlightAware
Thu 07:32:00 PM 56.8982 177.5932 240° Southwest  Level FlightAware
Thu 07:33:00 PM 56.8427 177.4161 240° Southwest  Level FlightAware
Thu 07:34:00 PM 56.7870 177.2396 240° Southwest  Level FlightAware
Thu 07:35:00 PM 56.7309 177.0636 240° Southwest  Level FlightAware
Thu 07:36:00 PM 56.6746 176.8882 240° Southwest  Level FlightAware
Thu 07:37:00 PM 56.6181 176.7133 240° Southwest  Level FlightAware
Thu 07:38:00 PM 56.5613 176.5389 239° Southwest  Level FlightAware
Thu 07:39:00 PM 56.5043 176.3651 239° Southwest  Level FlightAware
Thu 07:40:00 PM 56.4470 176.1917 239° Southwest  Level FlightAware
Thu 07:41:00 PM 56.3895 176.0189 239° Southwest  Level FlightAware
Thu 07:42:00 PM 56.3318 175.8466 239° Southwest  Level FlightAware
Thu 07:43:00 PM 56.2738 175.6749 239° Southwest  Level FlightAware
Thu 07:43:33 PM 56.0667 175.0833 238° Southwest 450 518 40,000  Level Anchorage Center
Thu 07:44:00 PM 56.2155 175.5036 239° Southwest  Level FlightAware
Thu 07:44:33 PM 56.0167 174.9333 239° Southwest 430 495 40,000  Level Anchorage Center
Thu 07:45:00 PM 56.1571 175.3329 238° Southwest  Level FlightAware
Thu 07:45:34 PM 55.9500 174.7500 237° Southwest 420 483 40,000  Level Anchorage Center
Thu 07:46:00 PM 56.0984 175.1627 238° Southwest  Level FlightAware
Thu 07:46:33 PM 55.9000 174.5833 242° Southwest 420 483 40,000  Level Anchorage Center
Thu 07:47:00 PM 56.0395 174.9930 238° Southwest  Level FlightAware
Thu 07:47:34 PM 55.8333 174.4000 237° Southwest 420 483 40,000  Level Anchorage Center
Thu 07:48:00 PM 55.9803 174.8238 238° Southwest  Level FlightAware
Thu 07:48:34 PM 55.7667 174.2167 237° Southwest 420 483 40,000  Level Anchorage Center
Thu 07:49:00 PM 55.9209 174.6552 238° Southwest  Level FlightAware
Thu 07:49:34 PM 55.7167 174.0667 239° Southwest 420 483 40,000  Level Anchorage Center
Thu 07:50:34 PM 55.6333 173.8667 234° Southwest 420 483 40,000  Level Anchorage Center
Thu 07:51:34 PM 55.5833 173.7167 240° Southwest 420 483 40,000  Level Anchorage Center
Thu 07:52:34 PM 55.5333 173.5667 240° Southwest 430 495 40,000  Level Anchorage Center
Thu 07:53:34 PM 55.4500 173.3833 231° Southwest 420 483 40,000  Level Anchorage Center
Thu 07:54:34 PM 55.3833 173.1833 240° Southwest 430 495 40,000  Level Anchorage Center
Thu 07:55:35 PM 55.3167 173.0000 237° Southwest 420 483 40,000  Level Anchorage Center
Thu 07:56:35 PM 55.2667 172.8500 240° Southwest 420 483 40,000  Level Anchorage Center
Thu 07:57:34 PM 55.1833 172.6667 232° Southwest 420 483 40,000  Level Anchorage Center
Thu 07:58:35 PM 55.1333 172.5167 240° Southwest 420 483 40,000  Level Anchorage Center
Thu 07:59:35 PM 55.0667 172.3333 238° Southwest 410 472 40,000  Level Anchorage Center
Thu 08:00:35 PM 55.0000 172.1833 232° Southwest 430 495 40,000  Level Anchorage Center
Thu 08:01:35 PM 54.9333 172.0000 238° Southwest 430 495 40,000  Level Anchorage Center
Thu 08:02:35 PM 54.8667 171.8500 232° Southwest 430 495 40,000  Level Anchorage Center
Thu 08:03:35 PM 54.8000 171.6667 238° Southwest 430 495 40,000  Level Anchorage Center
Thu 08:04:35 PM 54.7167 171.4833 232° Southwest 430 495 40,000  Level Anchorage Center
Thu 08:05:35 PM 54.6500 171.3333 233° Southwest 430 495 40,000  Level Anchorage Center
Thu 08:06:35 PM 54.5833 171.1667 235° Southwest 420 483 40,000  Level Anchorage Center
Thu 08:07:35 PM 54.5167 171.0167 233° Southwest 430 495 40,000  Level Anchorage Center
Thu 08:08:36 PM 54.4500 170.8333 238° Southwest 430 495 40,000  Level Anchorage Center
Thu 08:09:35 PM 54.3833 170.6833 233° Southwest 420 483 40,000  Level Anchorage Center
Thu 08:10:36 PM 54.3167 170.5167 236° Southwest 420 483 40,000  Level Anchorage Center
Thu 08:11:36 PM 54.2333 170.3333 232° Southwest 450 518 40,000  Level Anchorage Center
Thu 08:12:36 PM 54.1667 170.2000 230° Southwest 420 483 40,000  Level Anchorage Center
Thu 08:13:36 PM 54.1000 170.0167 238° Southwest 440 506 40,000  Level Anchorage Center
Thu 08:14:36 PM 54.0333 169.8833 230° Southwest 430 495 40,000  Level Anchorage Center
Thu 08:15:36 PM 53.9500 169.7167 230° Southwest 420 483 40,000  Level Anchorage Center
Thu 08:16:36 PM 53.9000 169.5667 241° Southwest 410 472 40,000  Level Anchorage Center
Thu 08:17:36 PM 53.8167 169.4000 230° Southwest 430 495 40,000  Level Anchorage Center
Thu 08:18:36 PM 53.7500 169.2333 236° Southwest 410 472 40,000  Level Anchorage Center
Thu 08:19:36 PM 53.7000 169.1000 238° Southwest 420 483 40,000  Level Anchorage Center
Thu 08:20:36 PM 53.6333 168.9000 241° Southwest 420 483 40,000  Level Anchorage Center
Thu 08:21:36 PM 53.5833 168.7667 238° Southwest 420 483 40,000  Level Anchorage Center
Thu 08:22:36 PM 53.5167 168.5833 239° Southwest 420 483 40,000  Level Anchorage Center
Thu 08:23:36 PM 53.4667 168.4333 241° Southwest 420 483 40,000  Level Anchorage Center
Thu 08:25:00 PM 53.3897 168.2036 240° Southwest  Level FlightAware
Thu 08:32:00 PM 52.9893 167.0760 240° Southwest  Level FlightAware
Thu 08:33:00 PM 52.9312 166.9167 239° Southwest  Level FlightAware
Thu 08:34:00 PM 52.8730 166.7577 239° Southwest  Level FlightAware
Thu 08:35:00 PM 52.8145 166.5992 239° Southwest  Level FlightAware
Thu 08:36:00 PM 52.7558 166.4411 239° Southwest  Level FlightAware
Thu 08:37:00 PM 52.6968 166.2834 238° Southwest  Level FlightAware
Thu 08:38:00 PM 52.6377 166.1262 238° Southwest  Level FlightAware
Thu 08:39:00 PM 52.5784 165.9694 238° Southwest  Level FlightAware
Thu 08:40:00 PM 52.5189 165.8130 238° Southwest  Level FlightAware
Thu 08:41:00 PM 52.4591 165.6570 238° Southwest  Level FlightAware
Thu 08:42:00 PM 52.3992 165.5015 238° Southwest  Level FlightAware
Thu 08:43:00 PM 52.3390 165.3463 238° Southwest  Level FlightAware
Thu 08:44:00 PM 52.2787 165.1917 238° Southwest  Level FlightAware
Thu 08:45:00 PM 52.2181 165.0374 237° Southwest  Level FlightAware
Thu 08:46:00 PM 52.1574 164.8835 237° Southwest  Level FlightAware
Thu 08:47:00 PM 52.0964 164.7301 237° Southwest  Level FlightAware
Thu 08:48:00 PM 52.0353 164.5771 237° Southwest  Level FlightAware
Thu 08:49:00 PM 51.9739 164.4245 237° Southwest  Level FlightAware
Thu 08:50:00 PM 51.9124 164.2723 237° Southwest  Level FlightAware
Thu 08:51:00 PM 51.8507 164.1205 237° Southwest  Level FlightAware
Thu 08:52:00 PM 51.7887 163.9692 237° Southwest  Level FlightAware
Thu 08:53:00 PM 51.7266 163.8182 236° Southwest  Level FlightAware
Thu 08:54:00 PM 51.6643 163.6677 236° Southwest  Level FlightAware
Thu 08:55:00 PM 51.6017 163.5177 236° Southwest  Level FlightAware
Thu 08:56:00 PM 51.5390 163.3681 236° Southwest  Level FlightAware
Thu 08:57:00 PM 51.4760 163.2189 236° Southwest  Level FlightAware
Thu 08:58:00 PM 51.4128 163.0701 236° Southwest  Level FlightAware
Thu 08:59:00 PM 51.3495 162.9218 236° Southwest  Level FlightAware
Thu 09:00:00 PM 51.2859 162.7738 236° Southwest  Level FlightAware
Thu 09:01:00 PM 51.2222 162.6263 235° Southwest  Level FlightAware
Thu 09:02:00 PM 51.1583 162.4791 235° Southwest  Level FlightAware
Thu 09:03:00 PM 51.0942 162.3324 235° Southwest  Level FlightAware
Thu 09:04:00 PM 51.0299 162.1861 235° Southwest  Level FlightAware
Thu 09:05:00 PM 50.9655 162.0401 235° Southwest  Level FlightAware
Thu 09:06:00 PM 50.9009 161.8946 235° Southwest  Level FlightAware
Thu 09:07:00 PM 50.8360 161.7495 235° Southwest  Level FlightAware
Thu 09:08:00 PM 50.7710 161.6048 235° Southwest  Level FlightAware
Thu 09:09:00 PM 50.7059 161.4605 235° Southwest  Level FlightAware
Thu 09:10:00 PM 50.6405 161.3166 234° Southwest  Level FlightAware
Thu 09:11:00 PM 50.5750 161.1731 234° Southwest  Level FlightAware
Thu 09:12:00 PM 50.5093 161.0300 234° Southwest  Level FlightAware
Thu 09:13:00 PM 50.4434 160.8873 234° Southwest  Level FlightAware
Thu 09:14:00 PM 50.3774 160.7450 234° Southwest  Level FlightAware
Thu 09:15:00 PM 50.3111 160.6031 234° Southwest  Level FlightAware
Thu 09:16:00 PM 50.2447 160.4616 234° Southwest  Level FlightAware
Thu 09:17:00 PM 50.1783 160.3203 234° Southwest  Level FlightAware
Thu 09:18:00 PM 50.1121 160.1789 234° Southwest  Level FlightAware
Thu 09:19:00 PM 50.0457 160.0379 234° Southwest  Level FlightAware
Thu 09:20:00 PM 49.9792 159.8974 234° Southwest  Level FlightAware
Thu 09:21:00 PM 49.9125 159.7572 234° Southwest  Level FlightAware
Thu 09:22:00 PM 49.8456 159.6174 233° Southwest  Level FlightAware
Thu 09:23:00 PM 49.7786 159.4780 233° Southwest  Level FlightAware
Thu 09:24:00 PM 49.7078 159.3500 180° South  Level FlightAware
Thu 09:25:00 PM 49.6435 159.2180 233° Southwest  Level FlightAware
Thu 09:26:00 PM 49.5756 159.0801 233° Southwest  Level FlightAware
Thu 09:27:00 PM 49.5076 158.9427 233° Southwest  Level FlightAware
Thu 09:28:00 PM 49.4394 158.8056 233° Southwest  Level FlightAware
Thu 09:29:00 PM 49.3710 158.6688 233° Southwest  Level FlightAware
Thu 09:30:00 PM 49.3025 158.5325 232° Southwest  Level FlightAware
Thu 09:31:00 PM 49.2338 158.3966 232° Southwest  Level FlightAware
Thu 09:32:00 PM 49.1649 158.2610 232° Southwest  Level FlightAware
Thu 09:33:00 PM 49.0959 158.1258 232° Southwest  Level FlightAware
Thu 09:34:00 PM 49.0268 157.9910 232° Southwest  Level FlightAware
Thu 09:35:00 PM 48.9574 157.8565 232° Southwest  Level FlightAware
Thu 09:36:00 PM 48.8880 157.7224 232° Southwest  Level FlightAware
Thu 09:37:00 PM 48.8183 157.5887 232° Southwest  Level FlightAware
Thu 09:38:00 PM 48.7486 157.4554 232° Southwest  Level FlightAware
Thu 09:39:00 PM 48.6786 157.3224 231° Southwest  Level FlightAware
Thu 09:40:00 PM 48.6085 157.1898 231° Southwest  Level FlightAware
Thu 09:41:00 PM 48.5383 157.0576 231° Southwest  Level FlightAware
Thu 09:42:00 PM 48.4679 156.9258 231° Southwest  Level FlightAware
Thu 09:43:00 PM 48.3974 156.7943 231° Southwest  Level FlightAware
Thu 09:44:00 PM 48.3267 156.6631 231° Southwest  Level FlightAware
Thu 09:45:00 PM 48.2558 156.5324 231° Southwest  Level FlightAware
Thu 09:46:00 PM 48.1848 156.4020 231° Southwest  Level FlightAware
Thu 09:47:00 PM 48.1137 156.2719 231° Southwest  Level FlightAware
Thu 09:48:00 PM 48.0424 156.1423 231° Southwest  Level FlightAware
Thu 09:49:00 PM 47.9710 156.0129 231° Southwest  Level FlightAware
Thu 09:50:00 PM 47.8994 155.8840 230° Southwest  Level FlightAware
Thu 09:51:00 PM 47.8277 155.7554 230° Southwest  Level FlightAware
Thu 09:52:00 PM 47.7559 155.6271 230° Southwest  Level FlightAware
Thu 09:53:00 PM 47.6841 155.4989 230° Southwest  Level FlightAware
Thu 09:54:00 PM 47.6122 155.3710 230° Southwest  Level FlightAware
Thu 09:55:00 PM 47.5402 155.2435 230° Southwest  Level FlightAware
Thu 09:56:00 PM 47.4681 155.1163 230° Southwest  Level FlightAware
Thu 09:57:00 PM 47.3958 154.9894 230° Southwest  Level FlightAware
Thu 09:58:00 PM 47.3234 154.8629 230° Southwest  Level FlightAware
Thu 09:59:00 PM 47.2508 154.7368 230° Southwest  Level FlightAware
Thu 10:00:00 PM 47.1781 154.6110 230° Southwest  Level FlightAware
Thu 10:01:00 PM 47.1052 154.4855 230° Southwest  Level FlightAware
Thu 10:02:00 PM 47.0323 154.3604 229° Southwest  Level FlightAware
Thu 10:03:00 PM 46.9591 154.2357 229° Southwest  Level FlightAware
Thu 10:04:00 PM 46.8859 154.1112 229° Southwest  Level FlightAware
Thu 10:05:00 PM 46.8125 153.9871 229° Southwest  Level FlightAware
Thu 10:06:00 PM 46.7390 153.8634 229° Southwest  Level FlightAware
Thu 10:07:00 PM 46.6653 153.7400 229° Southwest  Level FlightAware
Thu 10:08:00 PM 46.5915 153.6169 229° Southwest  Level FlightAware
Thu 10:09:00 PM 46.5176 153.4942 229° Southwest  Level FlightAware
Thu 10:10:00 PM 46.4436 153.3717 229° Southwest  Level FlightAware
Thu 10:11:00 PM 46.3694 153.2497 229° Southwest  Level FlightAware
Thu 10:12:00 PM 46.2951 153.1279 229° Southwest  Level FlightAware
Thu 10:13:00 PM 46.2207 153.0065 228° Southwest  Level FlightAware
Thu 10:14:00 PM 46.1454 152.8864 228° Southwest  Level FlightAware
Thu 10:15:00 PM 46.0699 152.7667 228° Southwest  Level FlightAware
Thu 10:16:00 PM 45.9943 152.6472 228° Southwest  Level FlightAware
Thu 10:17:00 PM 45.9186 152.5282 228° Southwest  Level FlightAware
Thu 10:18:00 PM 45.8428 152.4094 228° Southwest  Level FlightAware
Thu 10:19:00 PM 45.7668 152.2910 227° Southwest  Level FlightAware
Thu 10:20:00 PM 45.6907 152.1728 227° Southwest  Level FlightAware
Thu 10:21:00 PM 45.6145 152.0550 227° Southwest  Level FlightAware
Thu 10:22:00 PM 45.5382 151.9375 227° Southwest  Level FlightAware
Thu 10:23:00 PM 45.4617 151.8204 227° Southwest  Level FlightAware
Thu 10:24:00 PM 45.3851 151.7036 227° Southwest  Level FlightAware
Thu 10:25:00 PM 45.3084 151.5870 227° Southwest  Level FlightAware
Thu 10:26:00 PM 45.2316 151.4708 227° Southwest  Level FlightAware
Thu 10:27:00 PM 45.1547 151.3549 227° Southwest  Level FlightAware
Thu 10:28:00 PM 45.0777 151.2393 227° Southwest  Level FlightAware
Thu 10:29:00 PM 45.0005 151.1241 227° Southwest  Level FlightAware
Thu 10:30:00 PM 44.9232 151.0091 227° Southwest  Level FlightAware
Thu 10:31:00 PM 44.8459 150.8945 226° Southwest  Level FlightAware
Thu 10:32:00 PM 44.7683 150.7801 226° Southwest  Level FlightAware
Thu 10:33:00 PM 44.6907 150.6661 226° Southwest  Level FlightAware
Thu 10:34:00 PM 44.6130 150.5523 226° Southwest  Level FlightAware
Thu 10:35:00 PM 44.5353 150.4387 226° Southwest  Level FlightAware
Thu 10:36:00 PM 44.4575 150.3254 226° Southwest  Level FlightAware
Thu 10:37:00 PM 44.3797 150.2123 226° Southwest  Level FlightAware
Thu 10:38:00 PM 44.3016 150.0996 226° Southwest  Level FlightAware
Thu 10:39:00 PM 44.2235 149.9871 226° Southwest  Level FlightAware
Thu 10:40:00 PM 44.1453 149.8749 226° Southwest  Level FlightAware
Thu 10:41:00 PM 44.0670 149.7631 226° Southwest  Level FlightAware
Thu 10:42:00 PM 43.9885 149.6515 226° Southwest  Level FlightAware
Thu 10:43:00 PM 43.9100 149.5403 226° Southwest  Level FlightAware
Thu 10:44:00 PM 43.8313 149.4293 226° Southwest  Level FlightAware
Thu 10:45:00 PM 43.7525 149.3186 225° Southwest  Level FlightAware
Thu 10:46:00 PM 43.6737 149.2082 225° Southwest  Level FlightAware
Thu 10:47:00 PM 43.5947 149.0981 225° Southwest  Level FlightAware
Thu 10:48:00 PM 43.5156 148.9883 225° Southwest  Level FlightAware
Thu 10:49:00 PM 43.4363 148.8789 225° Southwest  Level FlightAware
Thu 10:50:00 PM 43.3569 148.7698 225° Southwest  Level FlightAware
Thu 10:51:00 PM 43.2774 148.6611 225° Southwest  Level FlightAware
Thu 10:52:00 PM 43.1977 148.5526 225° Southwest  Level FlightAware
Thu 10:53:00 PM 43.1180 148.4444 225° Southwest  Level FlightAware
Thu 10:54:00 PM 43.0382 148.3365 225° Southwest  Level FlightAware
Thu 10:55:00 PM 42.9582 148.2288 225° Southwest  Level FlightAware
Thu 10:56:00 PM 42.8782 148.1214 225° Southwest  Level FlightAware
Thu 10:57:00 PM 42.7980 148.0144 224° Southwest  Level FlightAware
Thu 10:58:00 PM 42.7178 147.9075 224° Southwest  Level FlightAware
Thu 10:59:00 PM 42.6375 147.8010 224° Southwest  Level FlightAware
Thu 11:00:00 PM 42.5570 147.6948 224° Southwest  Level FlightAware
Thu 11:01:00 PM 42.4765 147.5888 224° Southwest  Level FlightAware
Thu 11:02:00 PM 42.3959 147.4831 224° Southwest  Level FlightAware
Thu 11:03:00 PM 42.3158 147.3767 225° Southwest  Level FlightAware
Thu 11:04:00 PM 42.2359 147.2703 225° Southwest  Level FlightAware
Thu 11:05:00 PM 42.1558 147.1643 224° Southwest  Level FlightAware
Thu 11:06:00 PM 42.0756 147.0585 224° Southwest  Level FlightAware
Thu 11:07:00 PM 41.9953 146.9530 224° Southwest  Level FlightAware
Thu 11:08:00 PM 41.9174 146.8469 288° West  Level FlightAware
Thu 11:09:00 PM 41.9520 146.7034 288° West  Level FlightAware
Thu 11:10:00 PM 41.9864 146.5598 288° West  Level FlightAware
Thu 11:11:00 PM 42.0206 146.4160 288° West  Level FlightAware
Thu 11:12:00 PM 42.0546 146.2720 288° West  Level FlightAware
Thu 11:13:00 PM 42.0884 146.1279 288° West  Level FlightAware
Thu 11:14:00 PM 42.1221 145.9836 288° West  Level FlightAware
Thu 11:15:00 PM 42.1555 145.8392 287° West  Level FlightAware
Thu 11:16:00 PM 42.1888 145.6947 287° West  Level FlightAware
Thu 11:17:00 PM 42.2220 145.5499 287° West  Level FlightAware
Thu 11:18:00 PM 42.2495 145.4031 283° West  Level FlightAware
Thu 11:19:00 PM 42.2819 145.2580 287° West  Level FlightAware
Thu 11:20:00 PM 42.3143 145.1128 287° West  Level FlightAware
Thu 11:21:00 PM 42.3465 144.9674 287° West  Level FlightAware
Thu 11:22:00 PM 42.3785 144.8219 287° West  Level FlightAware
Thu 11:23:00 PM 42.4183 144.6814 286° West  Level FlightAware
Thu 11:24:00 PM 42.4495 144.5353 286° West  Level FlightAware
Thu 11:25:00 PM 42.4804 144.3891 286° West  Level FlightAware
Thu 11:26:00 PM 42.5112 144.2428 286° West  Level FlightAware
Thu 11:27:00 PM 42.5391 144.0955 290° West  Level FlightAware
Thu 11:28:00 PM 42.5781 143.9527 290° West  Level FlightAware
Thu 11:29:00 PM 42.6048 143.8048 283° West  Level FlightAware
Thu 11:30:00 PM 42.6336 143.6576 287° West  Level FlightAware
Thu 11:31:00 PM 42.6660 143.5116 287° West  Level FlightAware
Thu 11:32:00 PM 42.6970 143.3649 285° West  Level FlightAware
Thu 11:33:00 PM 42.7325 143.2200 289° West  Level FlightAware
Thu 11:34:00 PM 42.7291 143.0676 268° West  Level FlightAware
Thu 11:35:00 PM 42.7245 142.9150 268° West  Level FlightAware
Thu 11:36:00 PM 42.7198 142.7624 268° West  Level FlightAware
Thu 11:37:00 PM 42.7167 142.6098 270° West  Level FlightAware
Thu 11:38:00 PM 42.7167 142.4571 270° West  Level FlightAware
Thu 11:39:00 PM 42.7096 142.3048 266° West  Level FlightAware
Thu 11:40:00 PM 42.7011 142.1525 266° West  Level FlightAware
Thu 11:41:00 PM 42.7001 141.9999 270° West  Level FlightAware
Thu 11:42:00 PM 42.7000 141.8472 270° West  Level FlightAware
Thu 11:43:00 PM 42.7000 141.6946 270° West  Level FlightAware
Thu 11:44:00 PM 42.7667 141.6833 North  Level FlightAware
Thu 11:45:00 PM 42.7752 141.6923 North  Level Estimated
Thu 11:46:00 PM 42.7752 141.6923 North  Level Estimated
Thu 11:47:00 PM 42.7752 141.6923 North  Level Estimated
Thu 11:48:00 PM 42.7752 141.6923 North  Level Estimated
Thu 11:49:00 PM 42.7752 141.6923 North  Level Estimated
Thu 11:50:00 PM 42.7752 141.6923 North  Level Estimated
Thu 11:51:00 PM 42.7752 141.6923 North  Level Estimated
Thu 11:52:00 PM 42.7752 141.6923 North  Level Estimated
Thu 11:53:00 PM 42.7752 141.6923 North  Level Estimated
Thu 11:54:00 PM 42.7752 141.6923 North  Level Estimated
Thu 11:55:00 PM 42.7752 141.6923 North  Level Estimated
Thu 11:56:00 PM 42.7752 141.6923 North  Level Estimated
Thu 11:57:00 PM 42.7752 141.6923 North  Level Estimated
Thu 11:58:00 PM 42.7752 141.6923 North  Level Estimated
Thu 11:59:00 PM 42.7752 141.6923 North  Level Estimated
Fri 12:00:00 AM 42.7752 141.6923 North  Level Estimated
Fri 12:01:00 AM 42.7752 141.6923 North  Level Estimated
Fri 12:02:00 AM 42.7752 141.6923 North  Level Estimated
Fri 12:03:00 AM 42.7752 141.6923 North  Level Estimated

Login

Don't have an account? Register now (free) for customized features, flight alerts, and more!